Time;durP1;ratioP1;P1;durP2;ratioP2;P2;SDS_P1;SDS_P2;PMS_P1;PMS_P2;Temp;Humidity;BMP_temperature;BMP_pressure;BME280_temperature;BME280_humidity;BME280_pressure;Samples;Min_cycle;Max_cycle;Signal;HPM_P1;HPM_P2
2022/11/17 00:01:07;;;;;;;3.20;1.10;;;-10.80;99.90;;;;;;5092198;28;20187;-71
2022/11/17 00:03:34;;;;;;;0.87;0.87;;;-10.30;99.90;;;;;;5091928;28;20190;-74
2022/11/17 00:06:06;;;;;;;0.60;0.60;;;-12.10;99.90;;;;;;5095178;28;20203;-72
2022/11/17 00:08:32;;;;;;;1.60;1.03;;;-12.10;99.90;;;;;;5084442;28;20179;-71
2022/11/17 00:11:01;;;;;;;1.13;0.73;;;-11.70;99.90;;;;;;5090945;28;20190;-72
2022/11/17 00:16:14;;;;;;;0.70;0.70;;;-10.90;99.90;;;;;;5095221;28;20189;-75
2022/11/17 00:21:25;;;;;;;1.70;1.10;;;-12.30;99.90;;;;;;5090316;28;20181;-75
2022/11/17 00:23:52;;;;;;;1.27;1.03;;;-10.80;99.90;;;;;;5095176;28;20207;-74
2022/11/17 00:26:21;;;;;;;4.37;1.40;;;-13.40;99.90;;;;;;5092480;28;20169;-73
2022/11/17 00:28:51;;;;;;;4.40;1.30;;;-11.40;99.90;;;;;;5093152;28;20191;-75
2022/11/17 00:34:04;;;;;;;7.80;1.47;;;-12.90;99.90;;;;;;5095880;28;20188;-74
2022/11/17 00:36:34;;;;;;;4.53;1.20;;;-13.00;99.90;;;;;;5096391;28;20239;-72
2022/11/17 00:39:00;;;;;;;8.70;2.20;;;-13.10;99.90;;;;;;5097642;28;20230;-72
2022/11/17 00:41:26;;;;;;;4.43;1.57;;;-10.70;99.90;;;;;;5092279;28;20213;-73
2022/11/17 00:43:51;;;;;;;4.03;2.00;;;-10.30;99.90;;;;;;5097422;28;20181;-72
2022/11/17 00:46:17;;;;;;;4.67;2.20;;;-10.20;99.90;;;;;;5098060;28;20613;-76
2022/11/17 00:48:43;;;;;;;9.50;2.07;;;-11.50;99.90;;;;;;5097980;28;20183;-74
2022/11/17 00:51:09;;;;;;;6.37;2.27;;;-13.00;99.90;;;;;;5090198;28;20186;-74
2022/11/17 00:53:34;;;;;;;3.63;1.70;;;-12.40;99.90;;;;;;5087209;28;20260;-75
2022/11/17 00:56:00;;;;;;;5.80;3.03;;;-16.40;99.90;;;;;;5087353;28;20190;-74
2022/11/17 00:58:26;;;;;;;8.80;2.00;;;-16.30;99.90;;;;;;5090946;28;20802;-73
2022/11/17 01:00:51;;;;;;;5.80;2.33;;;-15.40;99.90;;;;;;5093040;28;20231;-75
2022/11/17 01:03:17;;;;;;;9.33;1.93;;;-14.70;99.90;;;;;;5097602;28;20190;-75
2022/11/17 01:05:43;;;;;;;5.93;2.00;;;-14.90;99.90;;;;;;5096629;28;20175;-73
2022/11/17 01:08:09;;;;;;;12.73;2.23;;;-12.50;99.90;;;;;;5084742;28;20186;-76
2022/11/17 01:10:35;;;;;;;9.27;2.03;;;-12.80;99.90;;;;;;5090619;28;20186;-72
2022/11/17 01:13:01;;;;;;;8.23;1.80;;;-14.30;99.90;;;;;;5090252;28;20502;-73
2022/11/17 01:15:27;;;;;;;7.30;2.97;;;-13.90;99.90;;;;;;5086468;28;20190;-73
2022/11/17 01:17:52;;;;;;;3.67;2.20;;;-14.60;99.90;;;;;;5093929;28;20259;-72
2022/11/17 01:20:18;;;;;;;8.33;2.17;;;-15.10;99.90;;;;;;5097157;28;20225;-75
2022/11/17 01:22:44;;;;;;;6.17;2.37;;;-13.10;99.90;;;;;;5093466;28;20181;-75
2022/11/17 01:25:10;;;;;;;5.57;2.30;;;-12.80;99.90;;;;;;5096806;28;20574;-75
2022/11/17 01:27:36;;;;;;;4.10;1.83;;;-12.80;99.90;;;;;;5078579;28;20179;-76
2022/11/17 01:30:02;;;;;;;13.63;3.17;;;-12.40;99.90;;;;;;5090514;28;20186;-75
2022/11/17 01:32:28;;;;;;;9.93;2.53;;;-11.30;99.90;;;;;;5088688;28;20185;-77
2022/11/17 01:34:54;;;;;;;5.30;2.13;;;-13.60;99.90;;;;;;5097362;28;20253;-76
2022/11/17 01:37:19;;;;;;;6.77;2.70;;;-12.40;99.90;;;;;;5096883;28;20278;-73
2022/11/17 01:39:49;;;;;;;5.23;2.30;;;-12.40;99.90;;;;;;5093468;28;20172;-72
2022/11/17 01:42:20;;;;;;;8.70;2.67;;;-13.30;99.90;;;;;;5096479;28;20228;-75
2022/11/17 01:44:48;;;;;;;10.50;2.87;;;-12.90;99.90;;;;;;5080443;28;20240;-76
2022/11/17 01:47:28;;;;;;;14.40;3.23;;;-11.60;99.90;;;;;;5090835;28;20262;-76
2022/11/17 01:50:03;;;;;;;16.13;3.63;;;-11.00;99.90;;;;;;5093575;28;20202;-74
2022/11/17 01:52:30;;;;;;;12.50;3.40;;;-12.40;99.90;;;;;;5085592;28;20247;-75
2022/11/17 01:54:59;;;;;;;7.30;3.13;;;-10.50;99.90;;;;;;5088217;28;20177;-73
2022/11/17 01:57:34;;;;;;;10.40;3.30;;;-11.00;99.90;;;;;;5096842;28;20171;-74
2022/11/17 02:00:06;;;;;;;15.87;2.80;;;-10.10;99.90;;;;;;5091828;28;20199;-77
2022/11/17 02:02:33;;;;;;;11.70;3.70;;;-11.90;99.90;;;;;;5083108;28;20214;-75
2022/11/17 02:05:21;;;;;;;5.80;2.87;;;-10.70;99.90;;;;;;5078252;28;20174;-77
2022/11/17 02:07:49;;;;;;;12.17;2.47;;;-9.90;99.90;;;;;;5088296;28;20601;-76
2022/11/17 02:10:15;;;;;;;8.33;3.20;;;-11.30;99.90;;;;;;5095552;28;20217;-76
2022/11/17 02:12:42;;;;;;;8.30;3.63;;;-12.80;99.90;;;;;;5094561;28;20183;-77
2022/11/17 02:15:09;;;;;;;9.00;2.53;;;-14.60;99.90;;;;;;5089954;28;20269;-76
2022/11/17 02:17:43;;;;;;;3.90;2.53;;;-14.30;99.90;;;;;;5089272;28;20310;-77
2022/11/17 02:20:09;;;;;;;10.70;3.07;;;-15.20;99.90;;;;;;5089316;28;20227;-74
2022/11/17 02:22:53;;;;;;;3.87;1.83;;;-14.70;99.90;;;;;;5089010;28;20269;-76
2022/11/17 02:25:55;;;;;;;4.87;2.23;;;-12.50;99.90;;;;;;5096412;28;20253;-76
2022/11/17 02:28:27;;;;;;;7.00;1.80;;;-16.10;99.90;;;;;;5089806;28;20187;-76
2022/11/17 02:31:02;;;;;;;5.13;1.30;;;-15.10;99.90;;;;;;5096305;28;20486;-75
2022/11/17 02:33:39;;;;;;;3.27;1.63;;;-16.20;99.90;;;;;;5096373;28;20239;-74
2022/11/17 02:36:18;;;;;;;7.27;2.30;;;-15.00;99.90;;;;;;5095965;28;20178;-75
2022/11/17 02:38:57;;;;;;;5.33;2.03;;;-13.60;99.90;;;;;;5088652;28;20217;-73
2022/11/17 02:41:43;;;;;;;9.43;2.53;;;-14.80;99.90;;;;;;5083715;28;20182;-73
2022/11/17 02:44:24;;;;;;;9.63;3.00;;;-14.40;99.90;;;;;;5083018;28;20269;-74
2022/11/17 02:47:00;;;;;;;5.87;1.93;;;-13.00;99.90;;;;;;5086539;28;20175;-75
2022/11/17 02:49:37;;;;;;;5.53;3.20;;;-11.30;99.90;;;;;;5092560;28;20197;-75
2022/11/17 02:52:05;;;;;;;8.23;1.67;;;-11.00;99.90;;;;;;5094470;28;20202;-74
2022/11/17 02:54:31;;;;;;;13.47;2.97;;;-9.20;99.90;;;;;;5085980;28;20175;-72
2022/11/17 02:56:58;;;;;;;8.83;3.07;;;-10.50;99.90;;;;;;5092093;28;20186;-76
2022/11/17 02:59:47;;;;;;;6.40;2.50;;;-10.30;99.90;;;;;;5089666;28;20210;-77
2022/11/17 03:02:28;;;;;;;7.47;3.13;;;-8.80;99.90;;;;;;5091870;28;20204;-74
2022/11/17 03:05:08;;;;;;;8.57;2.77;;;-9.70;99.90;;;;;;5088748;28;20182;-74
2022/11/17 03:07:55;;;;;;;7.93;2.40;;;-11.00;99.90;;;;;;5095848;28;20182;-73
2022/11/17 03:10:35;;;;;;;7.07;2.23;;;-9.30;99.90;;;;;;5089710;28;20182;-72
2022/11/17 03:13:15;;;;;;;5.67;2.63;;;-9.40;99.90;;;;;;5098126;28;20261;-72
2022/11/17 03:15:49;;;;;;;5.00;2.00;;;-11.70;99.90;;;;;;5080618;28;20187;-74
2022/11/17 03:18:35;;;;;;;14.67;3.63;;;-11.50;99.90;;;;;;5094731;28;20190;-71
2022/11/17 03:21:33;;;;;;;19.80;3.40;;;-10.80;99.90;;;;;;5097691;28;20285;-74
2022/11/17 03:24:07;;;;;;;6.30;2.07;;;-11.30;99.90;;;;;;5098355;28;20620;-72
2022/11/17 03:26:35;;;;;;;8.47;3.07;;;-10.00;99.90;;;;;;5091069;28;20192;-74
2022/11/17 03:29:05;;;;;;;14.80;3.00;;;-10.00;99.90;;;;;;5099809;28;20189;-73
2022/11/17 03:31:32;;;;;;;8.40;2.27;;;-10.40;99.90;;;;;;5089599;28;20597;-74
2022/11/17 03:34:01;;;;;;;8.17;2.53;;;-9.00;99.90;;;;;;5095244;28;20194;-74
2022/11/17 03:36:41;;;;;;;8.17;2.77;;;-11.80;99.90;;;;;;5099611;28;20589;-74
2022/11/17 03:39:18;;;;;;;9.10;2.00;;;-11.80;99.90;;;;;;5091597;28;20213;-74
2022/11/17 03:41:47;;;;;;;3.73;2.30;;;-10.50;99.90;;;;;;5089995;28;20190;-75
2022/11/17 03:44:16;;;;;;;6.73;2.67;;;-8.80;99.90;;;;;;5097519;28;20271;-76
2022/11/17 03:46:47;;;;;;;6.83;2.53;;;-9.80;99.90;;;;;;5089897;28;20174;-75
2022/11/17 03:49:21;;;;;;;6.00;2.10;;;-10.80;99.90;;;;;;5089162;28;20269;-75
2022/11/17 03:51:47;;;;;;;10.63;2.07;;;-10.10;99.90;;;;;;5088371;28;20504;-75
2022/11/17 03:54:14;;;;;;;7.13;2.60;;;-10.00;99.90;;;;;;5097693;28;20200;-76
2022/11/17 03:56:58;;;;;;;6.40;2.40;;;-9.90;99.90;;;;;;5099222;28;20174;-73
2022/11/17 03:59:31;;;;;;;6.53;2.00;;;-10.00;99.90;;;;;;5091789;28;20480;-72
2022/11/17 04:01:57;;;;;;;8.70;2.37;;;-11.40;99.90;;;;;;5095349;28;20273;-72
2022/11/17 04:04:23;;;;;;;7.60;3.67;;;-11.70;99.90;;;;;;5096242;28;20186;-71
2022/11/17 04:06:54;;;;;;;8.17;3.03;;;-9.80;99.90;;;;;;5092353;28;20178;-74
2022/11/17 04:09:20;;;;;;;9.03;2.83;;;-11.40;99.90;;;;;;5106144;27;20210;-73
2022/11/17 04:17:14;;;;;;;9.33;3.53;;;-10.60;99.90;;;;;;5098094;28;20494;-75
2022/11/17 04:19:39;;;;;;;8.80;2.90;;;-11.60;99.90;;;;;;5098692;28;20194;-76
2022/11/17 04:22:05;;;;;;;8.57;2.80;;;-9.70;99.90;;;;;;5098828;28;20502;-73
2022/11/17 04:24:31;;;;;;;7.27;2.43;;;-9.80;99.90;;;;;;5096603;28;20202;-76
2022/11/17 04:29:41;;;;;;;6.63;1.50;;;-8.60;99.90;;;;;;5092450;28;20224;-72
2022/11/17 04:32:07;;;;;;;6.13;2.67;;;-9.40;99.90;;;;;;5088384;28;20185;-73
2022/11/17 04:34:32;;;;;;;17.07;3.10;;;-9.40;99.90;;;;;;5094122;28;20178;-74
2022/11/17 04:36:58;;;;;;;11.30;1.83;;;-9.60;99.90;;;;;;5085810;28;20177;-74
2022/11/17 04:39:24;;;;;;;8.53;3.00;;;-10.20;99.90;;;;;;5098588;28;20209;-72
2022/11/17 04:42:03;;;;;;;6.90;1.73;;;-10.40;99.90;;;;;;5091386;28;20194;-74
2022/11/17 04:44:31;;;;;;;3.10;0.87;;;-9.20;99.90;;;;;;5088623;28;20672;-72
2022/11/17 04:46:56;;;;;;;6.20;1.40;;;-8.80;99.90;;;;;;5093011;28;20491;-73
2022/11/17 04:49:24;;;;;;;1.50;0.90;;;-9.00;99.90;;;;;;5086829;28;20194;-73
2022/11/17 04:51:51;;;;;;;5.27;1.23;;;-9.90;99.90;;;;;;5093092;28;20202;-73
2022/11/17 04:54:20;;;;;;;5.57;1.40;;;-9.30;99.90;;;;;;5097931;28;20190;-73
2022/11/17 04:56:47;;;;;;;5.03;1.80;;;-11.80;99.90;;;;;;5093401;28;20183;-72
2022/11/17 04:59:12;;;;;;;11.17;1.60;;;-11.90;99.90;;;;;;5097589;28;20274;-73
2022/11/17 05:01:38;;;;;;;2.83;1.10;;;-12.30;99.90;;;;;;5082364;28;20482;-71
2022/11/17 05:04:07;;;;;;;1.87;1.27;;;-12.60;99.90;;;;;;5091946;28;20245;-74
2022/11/17 05:06:36;;;;;;;10.10;2.70;;;-13.40;99.90;;;;;;5095495;28;20177;-72
2022/11/17 05:09:13;;;;;;;3.93;1.10;;;-11.00;99.90;;;;;;5098016;28;20212;-73
2022/11/17 05:14:24;;;;;;;3.50;1.43;;;-10.90;99.90;;;;;;5097019;28;20211;-73
2022/11/17 05:17:07;;;;;;;2.87;0.90;;;-9.90;99.90;;;;;;5093152;28;20496;-73
2022/11/17 05:19:43;;;;;;;0.70;0.70;;;-10.30;99.90;;;;;;5089151;28;20237;-72
2022/11/17 05:24:54;;;;;;;0.97;0.50;;;-9.20;99.90;;;;;;5088800;28;20192;-74
2022/11/17 05:27:21;;;;;;;3.83;0.80;;;-10.40;99.90;;;;;;5095932;28;20591;-73
2022/11/17 05:29:47;;;;;;;3.13;1.00;;;-9.10;99.90;;;;;;5086584;28;20172;-73
2022/11/17 05:32:13;;;;;;;1.23;1.07;;;-9.20;99.90;;;;;;5091854;28;20195;-74
2022/11/17 05:34:39;;;;;;;1.60;0.70;;;-9.20;99.90;;;;;;5085536;28;20262;-73
2022/11/17 05:37:05;;;;;;;3.47;0.90;;;-9.00;99.90;;;;;;5082286;28;20185;-75
2022/11/17 05:39:31;;;;;;;3.17;1.20;;;-10.50;99.90;;;;;;5094862;28;20214;-75
2022/11/17 05:41:57;;;;;;;2.37;0.87;;;-13.60;99.90;;;;;;5094695;28;20193;-75
2022/11/17 05:44:23;;;;;;;1.63;1.03;;;-10.30;99.90;;;;;;5097091;28;20495;-75
2022/11/17 05:46:48;;;;;;;1.23;0.63;;;-10.30;99.90;;;;;;5093106;28;20176;-75
2022/11/17 05:49:14;;;;;;;1.73;0.77;;;-11.00;99.90;;;;;;5090502;28;20190;-74
2022/11/17 05:51:40;;;;;;;5.97;1.13;;;-11.50;99.90;;;;;;5095813;28;20275;-75
2022/11/17 05:54:05;;;;;;;3.73;0.90;;;-10.70;99.90;;;;;;5091005;28;20183;-76
2022/11/17 05:56:51;;;;;;;3.70;0.77;;;-11.70;99.90;;;;;;5092192;28;20590;-71
2022/11/17 05:59:21;;;;;;;3.40;1.47;;;-9.50;99.90;;;;;;5093337;28;20630;-72
2022/11/17 06:01:53;;;;;;;3.07;0.80;;;-9.90;99.90;;;;;;5096693;28;20260;-74
2022/11/17 06:04:19;;;;;;;2.20;1.37;;;-9.20;99.90;;;;;;5096569;28;20277;-73
2022/11/17 06:06:46;;;;;;;3.90;0.87;;;-9.20;99.90;;;;;;5096593;28;20183;-73
2022/11/17 06:09:12;;;;;;;5.57;1.27;;;-10.40;99.90;;;;;;5096526;28;20268;-72
2022/11/17 06:11:38;;;;;;;1.20;1.03;;;-8.80;99.90;;;;;;5096340;28;20255;-75
2022/11/17 06:14:03;;;;;;;1.23;0.80;;;-10.80;99.90;;;;;;5095472;28;20201;-74
2022/11/17 06:16:34;;;;;;;4.37;1.30;;;-9.20;99.90;;;;;;5085319;28;20267;-72
2022/11/17 06:19:05;;;;;;;5.90;1.07;;;-8.80;99.90;;;;;;5083071;28;20762;-76
2022/11/17 06:21:32;;;;;;;1.43;1.30;;;-11.40;99.90;;;;;;5087317;28;20178;-77
2022/11/17 06:23:59;;;;;;;1.63;0.80;;;-10.60;99.90;;;;;;5091258;28;20193;-73
2022/11/17 06:26:25;;;;;;;3.20;1.07;;;-10.30;99.90;;;;;;5089802;28;20594;-75
2022/11/17 06:28:51;;;;;;;1.43;0.63;;;-9.20;99.90;;;;;;5096431;28;20469;-74
2022/11/17 06:31:17;;;;;;;2.60;0.63;;;-8.70;99.90;;;;;;5081593;28;20667;-75
2022/11/17 06:33:44;;;;;;;3.50;1.13;;;-7.90;99.90;;;;;;5090399;28;20189;-74
2022/11/17 06:36:10;;;;;;;2.93;1.27;;;-7.60;99.90;;;;;;5090121;28;20240;-75
2022/11/17 06:38:36;;;;;;;4.03;0.87;;;-10.30;99.90;;;;;;5090504;28;20631;-72
2022/11/17 06:41:06;;;;;;;4.73;1.00;;;-9.70;99.90;;;;;;5092892;28;20216;-77
2022/11/17 06:43:32;;;;;;;4.43;1.33;;;-9.30;99.90;;;;;;5088541;28;20175;-75
2022/11/17 06:46:03;;;;;;;7.77;2.47;;;-9.00;99.90;;;;;;5088058;28;20263;-75
2022/11/17 06:48:28;;;;;;;2.37;1.13;;;-9.60;99.90;;;;;;5095722;28;20211;-78
2022/11/17 06:50:55;;;;;;;4.13;1.30;;;-9.50;99.90;;;;;;5081117;28;20578;-72
2022/11/17 06:53:22;;;;;;;3.20;0.80;;;-8.50;99.90;;;;;;5088219;28;20204;-77
2022/11/17 06:58:35;;;;;;;1.23;1.00;;;-10.20;99.90;;;;;;5082157;28;20264;-75
2022/11/17 07:01:09;;;;;;;3.87;1.03;;;-9.70;99.90;;;;;;5092756;28;20580;-75
2022/11/17 07:03:37;;;;;;;3.37;0.77;;;-9.50;99.90;;;;;;5081087;28;20281;-74
2022/11/17 07:06:05;;;;;;;12.73;2.37;;;-9.90;99.90;;;;;;5092243;28;20255;-77
2022/11/17 07:08:31;;;;;;;2.17;1.10;;;-10.20;99.90;;;;;;5094622;28;20225;-74
2022/11/17 07:11:05;;;;;;;5.33;1.03;;;-9.10;99.90;;;;;;5095585;28;20693;-74
2022/11/17 07:13:32;;;;;;;4.37;1.20;;;-9.10;99.90;;;;;;5088562;28;20187;-76
2022/11/17 07:16:09;;;;;;;1.23;1.13;;;-9.30;99.90;;;;;;5090550;28;20192;-75
2022/11/17 07:18:36;;;;;;;3.70;1.47;;;-7.40;99.90;;;;;;5089851;28;20393;-78
2022/11/17 07:21:04;;;;;;;5.27;0.90;;;-8.10;99.90;;;;;;5091721;28;20175;-76
2022/11/17 07:23:35;;;;;;;0.80;0.70;;;-8.10;99.90;;;;;;5093955;28;20184;-73
2022/11/17 07:26:03;;;;;;;3.10;1.00;;;-9.30;99.90;;;;;;5091408;28;20176;-71
2022/11/17 07:28:30;;;;;;;2.37;0.80;;;-10.00;99.90;;;;;;5082331;28;20194;-72
2022/11/17 07:31:00;;;;;;;3.70;1.23;;;-11.60;99.90;;;;;;5083066;28;20179;-71
2022/11/17 07:33:27;;;;;;;1.17;0.77;;;-11.30;99.90;;;;;;5086414;28;20195;-70
2022/11/17 07:35:54;;;;;;;1.93;1.07;;;-13.30;99.90;;;;;;5081893;28;20268;-73
2022/11/17 07:38:20;;;;;;;4.27;1.20;;;-12.70;99.90;;;;;;5093043;28;20207;-73
2022/11/17 07:40:46;;;;;;;2.50;0.80;;;-12.10;99.90;;;;;;5085189;28;20178;-72
2022/11/17 07:43:12;;;;;;;3.00;1.00;;;-12.50;99.90;;;;;;5089184;28;20185;-74
2022/11/17 07:45:38;;;;;;;2.40;0.80;;;-11.40;99.90;;;;;;5087537;28;20181;-77
2022/11/17 07:48:05;;;;;;;0.67;0.47;;;-10.80;99.90;;;;;;5090889;28;20190;-75
2022/11/17 07:50:31;;;;;;;3.90;1.03;;;-9.80;99.90;;;;;;5090464;28;20523;-76
2022/11/17 07:52:57;;;;;;;3.63;0.90;;;-10.10;99.90;;;;;;5094327;28;20210;-71
2022/11/17 07:55:24;;;;;;;1.57;0.60;;;-9.50;99.90;;;;;;5090791;28;20490;-69
2022/11/17 07:57:58;;;;;;;4.70;0.73;;;-9.10;99.90;;;;;;5084133;28;20659;-77
2022/11/17 08:00:26;;;;;;;2.13;0.93;;;-8.40;99.90;;;;;;5103292;28;20583;-78
2022/11/17 08:02:52;;;;;;;3.77;0.87;;;-8.00;99.90;;;;;;5093988;28;20187;-73
2022/11/17 08:05:18;;;;;;;4.17;0.70;;;-8.20;99.90;;;;;;5094662;28;20175;-76
2022/11/17 08:07:45;;;;;;;7.60;1.40;;;-8.60;99.90;;;;;;5099054;28;20588;-73
2022/11/17 08:10:12;;;;;;;1.80;0.60;;;-8.60;99.90;;;;;;5084927;28;20479;-78
2022/11/17 08:12:37;;;;;;;6.33;0.83;;;-9.40;99.90;;;;;;5096935;28;20477;-70
2022/11/17 08:15:03;;;;;;;2.50;0.83;;;-8.90;99.90;;;;;;5098540;28;20188;-75
2022/11/17 08:17:30;;;;;;;4.17;1.67;;;-8.40;99.90;;;;;;5094488;28;20187;-75
2022/11/17 08:19:57;;;;;;;1.43;0.97;;;-7.90;99.90;;;;;;5088169;28;20210;-71
2022/11/17 08:22:23;;;;;;;2.77;0.80;;;-9.70;99.90;;;;;;5098589;28;20230;-72
2022/11/17 08:24:48;;;;;;;1.50;0.90;;;-10.30;99.90;;;;;;5085556;28;20187;-73
2022/11/17 08:27:14;;;;;;;1.40;0.77;;;-13.20;99.90;;;;;;5088438;28;20181;-75
2022/11/17 08:29:40;;;;;;;3.37;1.40;;;-10.90;99.90;;;;;;5089549;28;20247;-76
2022/11/17 08:32:06;;;;;;;2.03;0.60;;;-11.90;99.90;;;;;;5099008;28;20191;-79
2022/11/17 08:34:31;;;;;;;3.50;0.80;;;-12.30;99.90;;;;;;5096040;28;20191;-76
2022/11/17 08:36:57;;;;;;;3.17;1.20;;;-11.80;99.90;;;;;;5095815;28;20192;-75
2022/11/17 08:39:23;;;;;;;1.70;0.63;;;-11.40;99.90;;;;;;5094700;28;20288;-76
2022/11/17 08:41:50;;;;;;;3.33;1.07;;;-12.50;99.90;;;;;;5092235;28;20204;-77
2022/11/17 08:44:19;;;;;;;3.03;1.20;;;-12.10;99.90;;;;;;5098899;28;20184;-75
2022/11/17 08:46:45;;;;;;;0.80;0.70;;;-12.30;99.90;;;;;;5094202;28;20234;-71
2022/11/17 08:49:11;;;;;;;2.90;0.73;;;-12.30;99.90;;;;;;5097116;28;20190;-71
2022/11/17 08:51:36;;;;;;;2.53;1.07;;;-12.00;99.90;;;;;;5088258;28;20338;-72
2022/11/17 08:54:02;;;;;;;5.60;0.60;;;-10.60;99.90;;;;;;5089103;28;20611;-73
2022/11/17 08:56:28;;;;;;;3.17;0.63;;;-13.70;99.90;;;;;;5089338;28;20197;-73
2022/11/17 08:58:53;;;;;;;1.17;0.60;;;-12.60;99.90;;;;;;5095340;28;20746;-73
2022/11/17 09:01:19;;;;;;;0.60;0.60;;;-12.10;99.90;;;;;;5097376;28;20200;-78
2022/11/17 09:03:46;;;;;;;4.23;0.60;;;-13.60;99.90;;;;;;5084328;28;20513;-72
2022/11/17 09:06:14;;;;;;;2.43;1.20;;;-12.30;99.90;;;;;;5089577;28;20191;-72
2022/11/17 09:08:40;;;;;;;4.47;0.93;;;-12.90;99.90;;;;;;5091876;28;20585;-72
2022/11/17 09:11:08;;;;;;;3.03;0.80;;;-13.90;99.90;;;;;;5086243;28;20186;-72
2022/11/17 09:13:34;;;;;;;0.97;0.60;;;-12.90;99.90;;;;;;5092316;28;20194;-72
2022/11/17 09:16:05;;;;;;;3.23;0.77;;;-13.30;99.90;;;;;;5094499;28;20224;-72
2022/11/17 09:18:31;;;;;;;6.47;0.87;;;-13.80;99.90;;;;;;5098225;28;20199;-74
2022/11/17 09:21:02;;;;;;;9.00;1.10;;;-14.00;99.90;;;;;;5077639;28;20199;-76
2022/11/17 09:23:29;;;;;;;4.57;0.87;;;-12.60;99.90;;;;;;5090009;28;20492;-74
2022/11/17 09:25:55;;;;;;;1.67;0.90;;;-10.80;99.90;;;;;;5091317;28;20180;-71
2022/11/17 09:28:26;;;;;;;0.70;0.70;;;-10.30;99.90;;;;;;5095833;28;20189;-70
2022/11/17 09:30:52;;;;;;;3.77;0.70;;;-12.10;99.90;;;;;;5095642;28;20186;-72
2022/11/17 09:33:18;;;;;;;4.47;0.83;;;-9.90;99.90;;;;;;5096988;28;20188;-71
2022/11/17 09:35:44;;;;;;;2.10;1.57;;;-10.80;99.90;;;;;;5084337;28;20194;-73
2022/11/17 09:38:10;;;;;;;2.53;1.07;;;-13.00;99.90;;;;;;5090616;28;20263;-76
2022/11/17 09:40:39;;;;;;;2.10;1.57;;;-15.70;99.90;;;;;;5096615;28;20193;-77
2022/11/17 09:43:15;;;;;;;2.97;1.10;;;-16.80;99.90;;;;;;5093616;28;20392;-77
2022/11/17 09:45:45;;;;;;;2.73;0.70;;;-14.80;99.90;;;;;;5087588;28;20259;-77
2022/11/17 09:48:19;;;;;;;3.30;0.73;;;-13.60;99.90;;;;;;5094101;28;20181;-76
2022/11/17 09:50:46;;;;;;;5.93;1.27;;;-13.00;99.90;;;;;;5089992;28;20281;-71
2022/11/17 09:53:12;;;;;;;8.10;1.47;;;-11.80;99.90;;;;;;5085020;28;20213;-73
2022/11/17 09:55:47;;;;;;;1.87;1.00;;;-12.10;99.90;;;;;;5086111;28;20188;-75
2022/11/17 09:58:18;;;;;;;3.40;0.93;;;-13.30;99.90;;;;;;5090542;28;20617;-71
2022/11/17 10:00:51;;;;;;;3.43;0.93;;;-11.60;99.90;;;;;;5084856;28;20457;-74
2022/11/17 10:03:35;;;;;;;5.30;1.03;;;-13.20;99.90;;;;;;5081762;28;20309;-72
2022/11/17 10:06:10;;;;;;;1.23;0.73;;;-13.80;99.90;;;;;;5090566;28;20280;-72
2022/11/17 10:09:20;;;;;;;1.70;0.67;;;-13.10;99.90;;;;;;5092651;28;20196;-71
2022/11/17 10:11:46;;;;;;;2.13;0.87;;;-14.50;99.90;;;;;;5085988;28;20194;-71
2022/11/17 10:14:15;;;;;;;1.97;1.20;;;-11.70;99.90;;;;;;5087463;28;20201;-72
2022/11/17 10:16:56;;;;;;;2.33;1.00;;;-13.00;99.90;;;;;;5095452;28;21814;-72
2022/11/17 10:19:26;;;;;;;4.53;0.83;;;-15.40;99.90;;;;;;5095003;28;20293;-72
2022/11/17 10:22:17;;;;;;;2.83;0.93;;;-12.30;99.90;;;;;;5095054;28;20261;-70
2022/11/17 10:24:45;;;;;;;1.63;1.17;;;-13.40;99.90;;;;;;5083953;28;20247;-71
2022/11/17 10:27:18;;;;;;;1.93;0.70;;;-10.50;99.90;;;;;;5099098;28;20177;-72
2022/11/17 10:30:18;;;;;;;6.10;1.00;;;-10.50;99.90;;;;;;5094811;28;20194;-71
2022/11/17 10:32:59;;;;;;;3.30;0.90;;;-10.60;99.90;;;;;;5087505;28;20194;-73
2022/11/17 10:35:33;;;;;;;2.10;1.17;;;-9.80;99.90;;;;;;5082764;28;20386;-73
2022/11/17 10:38:19;;;;;;;1.77;1.07;;;-10.30;99.90;;;;;;5089441;28;20255;-73
2022/11/17 10:40:50;;;;;;;5.83;2.20;;;-10.50;99.90;;;;;;5079256;28;20869;-74
2022/11/17 10:43:34;;;;;;;2.27;1.10;;;-11.00;99.90;;;;;;5095026;28;20199;-73
2022/11/17 10:46:21;;;;;;;2.70;1.30;;;-10.80;99.90;;;;;;5094990;28;20182;-72
2022/11/17 10:49:02;;;;;;;4.80;1.60;;;-9.20;99.90;;;;;;5083877;28;20184;-73
2022/11/17 10:51:32;;;;;;;3.60;1.20;;;-9.60;99.90;;;;;;5083674;28;20210;-70
2022/11/17 10:54:16;;;;;;;1.90;1.50;;;-10.00;99.90;;;;;;5090082;28;20222;-73
2022/11/17 10:56:45;;;;;;;3.30;1.93;;;-13.20;99.90;;;;;;5088742;28;20269;-72
2022/11/17 10:59:13;;;;;;;13.03;1.70;;;-11.10;99.90;;;;;;5090068;28;20206;-73
2022/11/17 11:01:41;;;;;;;4.07;1.40;;;-17.10;99.90;;;;;;5094669;28;20181;-71
2022/11/17 11:04:26;;;;;;;5.80;1.73;;;-14.50;99.90;;;;;;5093969;28;20546;-71
2022/11/17 11:07:05;;;;;;;4.00;1.30;;;-14.50;99.90;;;;;;5090237;28;20254;-74
2022/11/17 11:09:32;;;;;;;4.77;1.23;;;-14.30;99.90;;;;;;5084385;28;21072;-74
2022/11/17 11:12:00;;;;;;;3.20;0.77;;;-12.70;99.90;;;;;;5090110;28;20247;-71
2022/11/17 11:14:40;;;;;;;3.03;1.03;;;-15.50;99.90;;;;;;5093909;28;20202;-73
2022/11/17 11:17:15;;;;;;;1.97;1.13;;;-16.50;99.90;;;;;;5093937;28;20282;-75
2022/11/17 11:19:42;;;;;;;2.20;1.20;;;-16.90;99.90;;;;;;5089827;28;20562;-73
2022/11/17 11:22:26;;;;;;;2.73;1.17;;;-16.60;99.90;;;;;;5086608;28;20189;-72
2022/11/17 11:25:13;;;;;;;7.67;0.73;;;-14.90;99.90;;;;;;5091317;28;20184;-71
2022/11/17 11:27:39;;;;;;;2.23;0.90;;;-12.50;99.90;;;;;;5090878;28;20214;-73
2022/11/17 11:30:14;;;;;;;1.03;0.70;;;-15.40;99.90;;;;;;5091046;28;20194;-73
2022/11/17 11:33:00;;;;;;;2.43;1.33;;;-15.80;99.90;;;;;;5084197;28;20178;-72
2022/11/17 11:35:44;;;;;;;1.60;0.70;;;-20.60;99.90;;;;;;5083410;28;20179;-71
2022/11/17 11:38:40;;;;;;;2.20;0.73;;;-14.70;99.90;;;;;;5088129;28;20293;-77
2022/11/17 11:41:11;;;;;;;1.20;1.10;;;-16.10;99.90;;;;;;5086549;28;20182;-74
2022/11/17 11:44:01;;;;;;;3.20;0.90;;;-13.70;99.90;;;;;;5084314;28;20480;-71
2022/11/17 11:46:30;;;;;;;3.90;1.10;;;-12.70;99.90;;;;;;5086464;28;20197;-75
2022/11/17 11:49:00;;;;;;;2.27;0.80;;;-13.30;99.90;;;;;;5095464;28;20187;-73
2022/11/17 11:51:36;;;;;;;2.27;0.70;;;-10.70;99.90;;;;;;5085188;28;20211;-73
2022/11/17 11:54:08;;;;;;;1.20;1.00;;;-11.70;99.90;;;;;;5089496;28;20182;-74
2022/11/17 11:56:37;;;;;;;3.13;0.70;;;-14.10;99.90;;;;;;5100352;28;20547;-73
2022/11/17 11:59:31;;;;;;;5.50;0.70;;;-13.20;99.90;;;;;;5084782;28;20236;-73
2022/11/17 12:02:05;;;;;;;2.77;0.73;;;-10.60;99.90;;;;;;5086601;28;20194;-73
2022/11/17 12:05:00;;;;;;;2.93;0.70;;;-9.40;99.90;;;;;;5085239;28;20185;-73
2022/11/17 12:08:07;;;;;;;5.17;1.20;;;-10.30;99.90;;;;;;5086838;28;20487;-72
2022/11/17 12:10:48;;;;;;;2.10;0.70;;;-10.70;99.90;;;;;;5092138;28;20636;-73
2022/11/17 12:13:17;;;;;;;1.80;0.63;;;-11.50;99.90;;;;;;5096140;28;20473;-72
2022/11/17 12:15:44;;;;;;;5.33;0.50;;;-9.30;99.90;;;;;;5089892;28;20206;-72
2022/11/17 12:18:15;;;;;;;0.93;0.80;;;-9.20;99.90;;;;;;5082189;28;20614;-71
2022/11/17 12:20:54;;;;;;;0.63;0.63;;;-11.60;99.90;;;;;;5082707;28;20177;-73
2022/11/17 12:23:47;;;;;;;3.87;0.57;;;-15.10;99.90;;;;;;5084542;28;20179;-71
2022/11/17 12:26:22;;;;;;;0.40;0.30;;;-14.00;99.90;;;;;;5083154;28;20171;-73
2022/11/17 12:29:09;;;;;;;2.17;0.63;;;-12.40;99.90;;;;;;5086159;28;20185;-74
2022/11/17 12:31:43;;;;;;;1.00;0.60;;;-13.70;99.90;;;;;;5087380;28;20194;-71
2022/11/17 12:34:29;;;;;;;2.63;1.23;;;-9.70;99.90;;;;;;5087388;28;20190;-77
2022/11/17 12:37:13;;;;;;;1.40;0.80;;;-10.70;99.90;;;;;;5097118;28;20205;-72
2022/11/17 12:39:59;;;;;;;0.57;0.40;;;-10.10;99.90;;;;;;5095597;28;20204;-73
2022/11/17 12:42:26;;;;;;;2.37;0.50;;;-8.10;99.90;;;;;;5083277;28;20183;-71
2022/11/17 12:44:57;;;;;;;4.13;0.97;;;-12.20;99.90;;;;;;5090139;28;20210;-71
2022/11/17 12:47:27;;;;;;;1.37;0.67;;;-10.40;99.90;;;;;;5084583;28;20586;-72
2022/11/17 12:50:17;;;;;;;1.77;0.67;;;-9.90;99.90;;;;;;5088019;28;20266;-72
2022/11/17 12:52:42;;;;;;;0.93;0.70;;;-10.50;99.90;;;;;;5095836;28;20206;-73
2022/11/17 12:55:24;;;;;;;1.13;0.43;;;-9.80;99.90;;;;;;5088810;28;20228;-72
2022/11/17 12:58:05;;;;;;;1.83;0.60;;;-8.70;99.90;;;;;;5090900;28;20206;-74
2022/11/17 13:00:40;;;;;;;3.03;1.10;;;-7.10;99.90;;;;;;5096887;28;20585;-73
2022/11/17 13:03:15;;;;;;;1.10;0.90;;;-8.00;99.90;;;;;;5087632;28;20198;-74
2022/11/17 13:05:40;;;;;;;1.53;0.77;;;-8.70;99.90;;;;;;5092406;28;20220;-73
2022/11/17 13:08:10;;;;;;;1.33;0.60;;;-9.00;99.90;;;;;;5096019;28;20491;-72
2022/11/17 13:10:36;;;;;;;1.13;0.57;;;-11.60;99.90;;;;;;5089517;28;20186;-71
2022/11/17 13:13:28;;;;;;;1.63;0.77;;;-11.30;99.90;;;;;;5096255;28;20189;-72
2022/11/17 13:15:59;;;;;;;1.00;0.30;;;-10.60;99.90;;;;;;5081335;28;20210;-71
2022/11/17 13:18:27;;;;;;;1.20;0.77;;;-11.70;99.90;;;;;;5091107;28;20508;-74
2022/11/17 13:20:53;;;;;;;2.07;0.93;;;-13.40;99.90;;;;;;5091936;28;20175;-74
2022/11/17 13:23:30;;;;;;;2.03;0.70;;;-14.70;99.90;;;;;;5096379;28;20829;-73